Time;durP1;ratioP1;P1;durP2;ratioP2;P2;SDS_P1;SDS_P2;PMS_P1;PMS_P2;Temp;Humidity;BMP_temperature;BMP_pressure;BME280_temperature;BME280_humidity;BME280_pressure;Samples;Min_cycle;Max_cycle;Signal;HPM_P1;HPM_P2
2024/04/11 00:00:37;;;;;;;5.95;4.10;;;;;;;7.57;100.00;102810.09;5358489;26;20008;-79
2024/04/11 00:03:05;;;;;;;9.13;5.13;;;;;;;7.59;100.00;102813.41;5372286;26;20105;-75
2024/04/11 00:05:31;;;;;;;7.13;4.13;;;;;;;7.57;100.00;102799.44;5383756;26;20007;-76
2024/04/11 00:07:57;;;;;;;8.73;5.13;;;;;;;7.58;100.00;102801.09;5404030;26;20004;-76
2024/04/11 00:10:23;;;;;;;10.50;5.38;;;;;;;7.57;100.00;102794.09;5391605;26;20011;-77
2024/04/11 00:12:50;;;;;;;8.25;5.05;;;;;;;7.57;100.00;102794.09;5355585;26;20529;-75
2024/04/11 00:15:16;;;;;;;8.20;5.25;;;;;;;7.53;100.00;102782.22;5412855;26;20033;-78
2024/04/11 00:17:44;;;;;;;10.80;5.03;;;;;;;7.54;100.00;102792.69;5372237;26;19999;-77
2024/04/11 00:20:09;;;;;;;11.20;5.95;;;;;;;7.55;100.00;102796.16;5393668;26;20003;-73
2024/04/11 00:22:35;;;;;;;12.50;5.70;;;;;;;7.53;100.00;102800.88;5367248;26;20004;-77
2024/04/11 00:25:01;;;;;;;9.32;5.43;;;;;;;7.55;100.00;102796.97;5393289;26;20010;-76
2024/04/11 00:27:28;;;;;;;9.25;5.30;;;;;;;7.56;100.00;102803.13;5370855;26;20003;-77
2024/04/11 00:29:53;;;;;;;10.55;5.70;;;;;;;7.55;100.00;102791.66;5360314;26;20004;-78
2024/04/11 00:32:19;;;;;;;9.55;5.70;;;;;;;7.57;100.00;102788.78;5390523;26;20427;-75
2024/04/11 00:34:45;;;;;;;10.00;5.63;;;;;;;7.56;100.00;102784.47;5371461;26;20081;-72
2024/04/11 00:37:11;;;;;;;10.25;5.57;;;;;;;7.58;100.00;102790.41;5354031;26;20015;-74
2024/04/11 00:39:37;;;;;;;8.25;5.03;;;;;;;7.58;100.00;102780.56;5326941;26;20008;-77
2024/04/11 00:42:03;;;;;;;10.40;6.45;;;;;;;7.59;100.00;102776.91;5356215;26;20013;-75
2024/04/11 00:44:32;;;;;;;9.57;5.30;;;;;;;7.59;100.00;102760.09;5386037;26;20545;-74
2024/04/11 00:46:59;;;;;;;8.00;5.97;;;;;;;7.59;100.00;102754.75;5352319;26;20019;-75
2024/04/11 00:49:25;;;;;;;8.05;5.00;;;;;;;7.58;100.00;102753.91;5372955;26;20022;-77
2024/04/11 00:51:55;;;;;;;11.40;5.20;;;;;;;7.59;100.00;102749.44;5370285;26;20461;-76
2024/04/11 00:54:22;;;;;;;9.35;5.65;;;;;;;7.60;100.00;102767.06;5373043;26;20471;-75
2024/04/11 00:56:49;;;;;;;10.05;5.63;;;;;;;7.60;100.00;102775.06;5354163;26;20008;-76
2024/04/11 00:59:16;;;;;;;9.88;5.88;;;;;;;7.59;100.00;102781.41;5384040;26;20086;-76
2024/04/11 01:01:44;;;;;;;12.43;5.43;;;;;;;7.63;100.00;102783.47;5387168;26;20422;-77
2024/04/11 01:04:10;;;;;;;11.60;5.70;;;;;;;7.63;100.00;102790.66;5412360;26;20032;-79
2024/04/11 01:07:06;;;;;;;8.60;5.80;;;;;;;7.66;100.00;102788.41;5364222;26;20004;-76
2024/04/11 01:09:35;;;;;;;11.40;5.95;;;;;;;7.71;100.00;102782.47;5346248;26;20008;-76
2024/04/11 01:12:03;;;;;;;9.43;5.47;;;;;;;7.73;100.00;102784.94;5370187;26;20008;-77
2024/04/11 01:14:33;;;;;;;6.65;5.05;;;;;;;7.77;100.00;102788.84;5370118;26;20007;-77
2024/04/11 01:16:59;;;;;;;8.27;4.93;;;;;;;7.79;100.00;102784.13;5347556;26;20092;-76
2024/04/11 01:19:25;;;;;;;11.40;5.93;;;;;;;7.83;100.00;102786.19;5365620;26;20019;-75
2024/04/11 01:21:51;;;;;;;8.35;5.40;;;;;;;7.86;100.00;102782.31;5371206;26;20011;-77
2024/04/11 01:24:16;;;;;;;10.45;5.15;;;;;;;7.88;100.00;102777.59;5369965;26;20239;-77
2024/04/11 01:26:43;;;;;;;10.90;5.10;;;;;;;7.91;100.00;102774.50;5405756;26;20019;-75
2024/04/11 01:29:10;;;;;;;12.50;6.50;;;;;;;7.89;100.00;102761.38;5357276;26;20012;-77
2024/04/11 01:31:38;;;;;;;7.43;4.90;;;;;;;7.92;100.00;102755.66;5360190;26;20004;-76
2024/04/11 01:34:04;;;;;;;10.35;4.95;;;;;;;7.92;100.00;102750.31;5393576;26;20694;-77
2024/04/11 01:36:30;;;;;;;11.27;5.22;;;;;;;7.94;100.00;102750.94;5336311;26;20428;-74
2024/04/11 01:38:56;;;;;;;8.95;4.53;;;;;;;7.96;100.00;102747.25;5360259;26;20390;-77
2024/04/11 01:41:24;;;;;;;8.30;4.25;;;;;;;7.99;100.00;102749.50;5395168;26;20109;-75
2024/04/11 01:43:50;;;;;;;9.02;4.95;;;;;;;8.03;100.00;102748.06;5353931;26;20022;-76
2024/04/11 01:46:18;;;;;;;6.93;4.95;;;;;;;8.07;100.00;102746.66;5396388;26;20023;-77
2024/04/11 01:48:46;;;;;;;8.98;4.88;;;;;;;8.09;100.00;102749.94;5373023;26;20026;-74
2024/04/11 01:51:14;;;;;;;8.05;4.78;;;;;;;8.10;100.00;102743.56;5367432;26;20019;-76
2024/04/11 01:53:40;;;;;;;6.45;4.00;;;;;;;8.13;100.00;102753.84;5367951;26;20011;-75
2024/04/11 01:56:06;;;;;;;8.25;4.80;;;;;;;8.14;100.00;102758.16;5395031;26;20020;-73
2024/04/11 01:58:32;;;;;;;10.43;4.15;;;;;;;8.14;100.00;102745.63;5319808;26;20048;-75
2024/04/11 02:01:09;;;;;;;8.77;4.45;;;;;;;8.15;100.00;102749.94;5380355;26;20018;-75
2024/04/11 02:03:38;;;;;;;;;;;;;;;8.14;100.00;102756.31;5363809;26;20019;-73
2024/04/11 02:06:07;;;;;;;8.25;4.03;;;;;;;8.17;100.00;102763.06;5338849;26;19936;-76
2024/04/11 02:08:35;;;;;;;8.80;4.68;;;;;;;8.18;100.00;102754.03;5375368;26;20020;-76
2024/04/11 02:11:02;;;;;;;8.32;4.18;;;;;;;8.19;100.00;102756.50;5339591;26;20018;-77
2024/04/11 02:13:27;;;;;;;10.45;4.55;;;;;;;8.22;100.00;102755.28;5386683;26;20015;-76
2024/04/11 02:15:56;;;;;;;11.27;4.72;;;;;;;8.23;100.00;102754.25;5395837;26;20011;-77
2024/04/11 02:18:24;;;;;;;11.40;4.72;;;;;;;8.25;100.00;102738.84;5394524;26;20007;-75
2024/04/11 02:20:53;;;;;;;10.43;4.70;;;;;;;8.28;100.00;102741.13;5363631;26;20011;-75
2024/04/11 02:23:20;;;;;;;9.85;4.50;;;;;;;8.32;100.00;102744.19;5337368;26;21537;-73
2024/04/11 02:25:51;;;;;;;8.75;4.60;;;;;;;8.33;100.00;102736.00;5342854;26;20000;-75
2024/04/11 02:28:19;;;;;;;8.50;4.07;;;;;;;8.36;100.00;102740.94;5396621;26;20012;-74
2024/04/11 02:30:45;;;;;;;6.95;4.43;;;;;;;8.41;100.00;102737.66;5367811;26;20004;-74
2024/04/11 02:33:11;;;;;;;7.65;4.07;;;;;;;8.42;100.00;102729.44;5361611;26;20008;-76
2024/04/11 02:35:39;;;;;;;6.10;4.05;;;;;;;8.46;100.00;102727.16;5370255;26;20483;-78
2024/04/11 02:38:05;;;;;;;8.85;4.53;;;;;;;8.50;100.00;102733.72;5386510;26;20099;-76
2024/04/11 02:40:31;;;;;;;9.25;3.75;;;;;;;8.54;100.00;102726.97;5372118;26;20019;-77
2024/04/11 02:42:57;;;;;;;7.95;3.63;;;;;;;8.59;100.00;102727.13;5361797;26;20076;-78
2024/04/11 02:45:23;;;;;;;7.47;3.25;;;;;;;8.63;100.00;102724.88;5403868;26;20529;-76
2024/04/11 02:47:49;;;;;;;6.30;3.25;;;;;;;8.68;100.00;102719.75;5367427;26;20019;-76
2024/04/11 02:50:16;;;;;;;6.28;3.92;;;;;;;8.75;100.00;102731.25;5389073;26;20028;-75
2024/04/11 02:52:42;;;;;;;9.23;3.42;;;;;;;8.81;100.00;102726.91;5382751;26;20004;-75
2024/04/11 02:55:14;;;;;;;5.85;3.35;;;;;;;8.82;100.00;102729.38;5354366;26;20428;-78
2024/04/11 02:57:45;;;;;;;8.20;3.25;;;;;;;8.85;100.00;102723.59;5368087;26;20055;-77
2024/04/11 03:00:11;;;;;;;6.28;3.25;;;;;;;8.90;100.00;102720.31;5366449;26;20007;-77
2024/04/11 03:02:37;;;;;;;8.52;3.60;;;;;;;8.95;100.00;102710.63;5368824;26;20023;-75
2024/04/11 03:05:05;;;;;;;6.47;2.95;;;;;;;8.97;100.00;102705.88;5386638;26;20543;-76
2024/04/11 03:07:32;;;;;;;6.78;3.45;;;;;;;9.03;100.00;102712.25;5379235;26;20012;-75
2024/04/11 03:09:58;;;;;;;5.82;2.90;;;;;;;9.07;100.00;102701.94;5320387;26;20008;-77
2024/04/11 03:12:23;;;;;;;7.72;2.60;;;;;;;9.11;100.00;102700.50;5375488;26;20472;-78
2024/04/11 03:14:49;;;;;;;8.18;3.25;;;;;;;9.14;100.00;102708.06;5356171;26;20915;-75
2024/04/11 03:17:15;;;;;;;4.57;2.80;;;;;;;9.16;100.00;102695.34;5396924;26;20004;-77
2024/04/11 03:19:41;;;;;;;;;;;;;;;9.19;100.00;102697.56;5388811;26;20080;-77
2024/04/11 03:22:07;;;;;;;9.57;3.13;;;;;;;9.20;100.00;102694.69;5371302;26;19925;-76
2024/04/11 03:24:33;;;;;;;6.13;3.05;;;;;;;9.22;100.00;102689.97;5396169;26;20073;-75
2024/04/11 03:27:02;;;;;;;8.40;2.58;;;;;;;9.23;100.00;102683.59;5331964;26;20015;-77
2024/04/11 03:29:29;;;;;;;6.75;2.78;;;;;;;9.24;100.00;102684.41;5368438;26;20352;-76
2024/04/11 03:31:55;;;;;;;;;;;;;;;9.26;100.00;102682.31;5365516;26;20011;-75
2024/04/11 03:34:21;;;;;;;7.82;3.17;;;;;;;9.26;100.00;102674.31;5333717;26;19936;-73
2024/04/11 03:36:49;;;;;;;6.95;2.95;;;;;;;9.27;100.00;102670.59;5355372;26;20333;-76
2024/04/11 03:39:15;;;;;;;8.18;3.38;;;;;;;9.26;100.00;102671.63;5366302;26;20004;-76
2024/04/11 03:41:45;;;;;;;5.30;2.50;;;;;;;9.26;100.00;102676.97;5382240;26;20011;-76
2024/04/11 03:44:11;;;;;;;4.75;2.72;;;;;;;9.25;100.00;102676.16;5365957;26;20019;-79
2024/04/11 03:46:38;;;;;;;;;;;;;;;9.26;100.00;102671.63;5343503;26;20069;-77
2024/04/11 03:49:04;;;;;;;6.40;2.42;;;;;;;9.25;100.00;102681.50;5374407;26;20437;-77
2024/04/11 03:51:33;;;;;;;8.48;2.55;;;;;;;9.26;100.00;102676.97;5358761;26;20004;-77
2024/04/11 03:54:02;;;;;;;4.60;3.03;;;;;;;9.26;100.00;102671.63;5373633;26;20018;-76
2024/04/11 03:56:29;;;;;;;5.05;2.55;;;;;;;9.26;100.00;102661.75;5392804;26;20007;-76
2024/04/11 03:58:56;;;;;;;;;;;;;;;9.26;100.00;102658.25;5400802;26;20012;-79
2024/04/11 04:01:26;;;;;;;6.00;3.00;;;;;;;9.24;100.00;102649.66;5332443;26;19932;-77
2024/04/11 04:03:53;;;;;;;5.35;2.40;;;;;;;9.25;100.00;102640.59;5390584;26;20465;-77
2024/04/11 04:06:19;;;;;;;6.25;3.00;;;;;;;9.26;100.00;102642.22;5385950;26;20022;-75
2024/04/11 04:08:51;;;;;;;7.50;2.30;;;;;;;9.26;100.00;102644.91;5369492;26;20057;-77
2024/04/11 04:11:19;;;;;;;5.28;2.70;;;;;;;9.27;100.00;102651.88;5422084;26;20011;-75
2024/04/11 04:13:44;;;;;;;4.57;2.33;;;;;;;9.30;100.00;102646.13;5361874;26;20026;-75
2024/04/11 04:16:13;;;;;;;5.63;2.83;;;;;;;9.29;100.00;102639.13;5358004;26;20008;-76
2024/04/11 04:18:41;;;;;;;6.13;2.30;;;;;;;9.28;100.00;102646.34;5377435;26;20483;-75
2024/04/11 04:21:07;;;;;;;6.82;2.25;;;;;;;9.30;100.00;102654.13;5361744;26;20417;-75
2024/04/11 04:23:36;;;;;;;5.85;2.00;;;;;;;9.30;100.00;102640.78;5413489;26;20008;-76
2024/04/11 04:26:08;;;;;;;6.75;2.55;;;;;;;9.35;100.00;102640.97;5372212;26;20054;-77
2024/04/11 04:28:38;;;;;;;5.13;2.42;;;;;;;9.38;100.00;102626.31;5389708;26;20019;-76
2024/04/11 04:31:20;;;;;;;4.95;2.38;;;;;;;9.38;100.00;102627.13;5379468;26;20003;-77
2024/04/11 04:33:50;;;;;;;7.25;2.08;;;;;;;9.40;100.00;102641.09;5387948;26;20015;-76
2024/04/11 04:36:20;;;;;;;3.70;2.20;;;;;;;9.42;100.00;102636.38;5382483;26;20015;-77
2024/04/11 04:38:49;;;;;;;7.82;2.38;;;;;;;9.46;100.00;102632.22;5354733;26;20045;-77
2024/04/11 04:41:20;;;;;;;7.93;2.97;;;;;;;9.48;100.00;102640.88;5365495;26;20032;-76
2024/04/11 04:43:57;;;;;;;6.95;2.15;;;;;;;9.52;100.00;102639.38;5373700;26;20022;-78
2024/04/11 04:46:28;;;;;;;4.72;2.25;;;;;;;9.56;100.00;102627.22;5345792;26;20003;-74
2024/04/11 04:48:56;;;;;;;4.32;1.75;;;;;;;9.64;100.00;102628.00;5363948;26;20017;-75
2024/04/11 04:51:24;;;;;;;6.28;2.35;;;;;;;9.68;100.00;102632.69;5370435;26;20020;-76
2024/04/11 04:53:50;;;;;;;7.72;1.92;;;;;;;9.74;100.00;102628.31;5365905;26;20052;-77
2024/04/11 04:56:23;;;;;;;7.95;2.38;;;;;;;9.78;100.00;102643.72;5380013;26;20008;-74
2024/04/11 04:58:51;;;;;;;4.85;2.30;;;;;;;9.84;100.00;102640.19;5336043;26;20742;-74
2024/04/11 05:01:18;;;;;;;6.30;1.88;;;;;;;9.88;100.00;102648.59;5380009;26;20008;-77
2024/04/11 05:03:45;;;;;;;;;;;;;;;9.91;100.00;102637.47;5347399;26;20350;-78
2024/04/11 05:06:13;;;;;;;5.60;2.00;;;;;;;9.92;100.00;102632.91;5400107;26;19937;-77
2024/04/11 05:08:46;;;;;;;6.80;1.98;;;;;;;9.97;100.00;102633.91;5399340;26;20010;-76
2024/04/11 05:11:13;;;;;;;7.53;2.13;;;;;;;10.00;100.00;102629.97;5393009;26;20019;-76
2024/04/11 05:13:40;;;;;;;7.28;2.20;;;;;;;10.02;100.00;102634.03;5366667;26;20014;-76
2024/04/11 05:16:07;;;;;;;7.13;2.25;;;;;;;10.03;100.00;102626.88;5358491;26;20012;-75
2024/04/11 05:18:37;;;;;;;7.28;2.08;;;;;;;10.04;100.00;102629.31;5336706;26;20081;-76
2024/04/11 05:21:12;;;;;;;6.28;1.50;;;;;;;10.06;100.00;102635.25;5379732;26;20000;-75
2024/04/11 05:23:41;;;;;;;6.15;1.85;;;;;;;10.09;100.00;102616.09;5360780;26;20536;-76
2024/04/11 05:26:14;;;;;;;6.93;2.00;;;;;;;10.12;100.00;102629.03;5416518;26;20003;-77
2024/04/11 05:28:44;;;;;;;6.47;2.30;;;;;;;10.12;100.00;102626.34;5414183;26;20022;-78
2024/04/11 05:31:16;;;;;;;6.85;2.33;;;;;;;10.16;100.00;102618.72;5366390;26;20000;-76
2024/04/11 05:33:43;;;;;;;10.07;2.53;;;;;;;10.17;100.00;102616.84;5352718;26;20000;-75
2024/04/11 05:36:12;;;;;;;8.27;2.95;;;;;;;10.18;100.00;102615.81;5357918;26;20364;-76
2024/04/11 05:38:38;;;;;;;6.90;2.92;;;;;;;10.21;100.00;102618.03;5350114;26;20043;-78
2024/04/11 05:41:04;;;;;;;8.05;2.70;;;;;;;10.20;100.00;102617.22;5338697;26;20011;-76
2024/04/11 05:43:30;;;;;;;7.40;3.10;;;;;;;10.20;100.00;102613.72;5338605;26;20000;-77
2024/04/11 05:46:02;;;;;;;9.10;2.95;;;;;;;10.22;100.00;102619.66;5382103;26;20010;-78
2024/04/11 05:48:28;;;;;;;8.60;3.72;;;;;;;10.22;100.00;102622.34;5381045;26;20015;-76
2024/04/11 05:50:55;;;;;;;7.50;3.00;;;;;;;10.20;100.00;102619.88;5369324;26;20007;-79
2024/04/11 05:53:22;;;;;;;6.32;3.50;;;;;;;10.22;100.00;102622.34;5382071;26;20004;-76
2024/04/11 05:55:48;;;;;;;6.82;3.67;;;;;;;10.24;100.00;102628.34;5397115;26;20012;-75
2024/04/11 05:58:14;;;;;;;7.13;2.72;;;;;;;10.25;100.00;102638.00;5395380;26;20949;-79
2024/04/11 06:00:42;;;;;;;;;;;;;;;10.24;100.00;102631.03;5352264;26;20014;-76
2024/04/11 06:03:11;;;;;;;7.40;2.63;;;;;;;10.24;100.00;102647.09;5370062;26;19932;-77
2024/04/11 06:05:39;;;;;;;5.85;2.90;;;;;;;10.24;100.00;102655.94;5393527;26;20007;-77
2024/04/11 06:08:08;;;;;;;6.47;2.53;;;;;;;10.23;100.00;102643.59;5392255;26;20522;-76
2024/04/11 06:10:37;;;;;;;8.75;3.35;;;;;;;10.23;100.00;102643.59;5387646;26;20051;-76
2024/04/11 06:13:02;;;;;;;7.57;3.05;;;;;;;10.22;100.00;102649.13;5360077;26;20353;-78
2024/04/11 06:15:29;;;;;;;8.23;2.67;;;;;;;10.22;100.00;102646.44;5348677;26;20072;-76
2024/04/11 06:17:55;;;;;;;5.93;2.42;;;;;;;10.23;100.00;102637.41;5362270;26;20216;-77
2024/04/11 06:20:24;;;;;;;5.22;2.70;;;;;;;10.25;100.00;102638.81;5351634;26;20077;-76
2024/04/11 06:22:55;;;;;;;5.30;2.42;;;;;;;10.27;100.00;102643.97;5362960;26;20019;-76
2024/04/11 06:25:22;;;;;;;5.38;2.00;;;;;;;10.28;100.00;102650.94;5400621;26;20018;-77
2024/04/11 06:27:50;;;;;;;5.63;2.17;;;;;;;10.32;100.00;102652.16;5368284;26;20001;-76
2024/04/11 06:30:19;;;;;;;5.28;2.03;;;;;;;10.32;100.00;102649.47;5346279;26;20406;-73
2024/04/11 06:32:49;;;;;;;5.85;2.10;;;;;;;10.34;100.00;102652.75;5392672;26;20013;-75
2024/04/11 06:35:15;;;;;;;6.72;2.08;;;;;;;10.34;100.00;102647.38;5350566;26;20085;-74
2024/04/11 06:37:44;;;;;;;11.55;2.28;;;;;;;10.36;100.00;102650.66;5353711;26;20015;-75
2024/04/11 06:40:12;;;;;;;7.57;2.05;;;;;;;10.38;100.00;102653.94;5344898;26;19999;-74
2024/04/11 06:42:48;;;;;;;8.30;2.15;;;;;;;10.41;100.00;102661.53;5384560;26;20089;-77
2024/04/11 06:45:23;;;;;;;3.90;2.15;;;;;;;10.45;100.00;102662.72;5398212;26;20008;-77
2024/04/11 06:47:49;;;;;;;6.80;2.30;;;;;;;10.47;100.00;102671.34;5401269;26;20040;-77
2024/04/11 06:50:15;;;;;;;7.05;2.10;;;;;;;10.51;100.00;102669.06;5360280;26;20500;-78
2024/04/11 06:52:42;;;;;;;8.07;2.60;;;;;;;10.51;100.00;102675.25;5365170;26;20343;-76
2024/04/11 06:55:08;;;;;;;10.95;2.00;;;;;;;10.53;100.00;102678.50;5402896;26;20477;-77
2024/04/11 06:57:40;;;;;;;6.00;2.55;;;;;;;10.56;100.00;102682.59;5379843;26;20003;-77
2024/04/11 07:00:14;;;;;;;4.68;1.98;;;;;;;10.56;100.00;102686.09;5394493;26;20136;-76
2024/04/11 07:02:44;;;;;;;7.05;1.95;;;;;;;10.58;100.00;102700.09;5382946;26;20023;-76
2024/04/11 07:05:16;;;;;;;5.53;1.75;;;;;;;10.57;100.00;102700.34;5398081;26;20023;-77
2024/04/11 07:07:45;;;;;;;6.43;2.05;;;;;;;10.53;100.00;102713.34;5364906;26;20229;-77
2024/04/11 07:10:15;;;;;;;5.07;2.00;;;;;;;10.51;100.00;102718.09;5392521;26;20040;-75
2024/04/11 07:12:42;;;;;;;6.25;2.30;;;;;;;10.47;100.00;102716.91;5337651;26;20008;-76
2024/04/11 07:15:12;;;;;;;9.73;2.63;;;;;;;10.44;100.00;102727.25;5374898;26;20057;-76
2024/04/11 07:17:45;;;;;;;5.25;2.10;;;;;;;10.43;100.00;102726.44;5394187;26;20025;-75
2024/04/11 07:20:25;;;;;;;7.32;2.28;;;;;;;10.39;100.00;102731.41;5367422;26;20003;-75
2024/04/11 07:22:54;;;;;;;7.75;2.70;;;;;;;10.36;100.00;102725.66;5391201;26;20062;-77
2024/04/11 07:25:25;;;;;;;4.57;2.13;;;;;;;10.35;100.00;102727.50;5341570;26;20014;-77
2024/04/11 07:27:55;;;;;;;7.28;2.53;;;;;;;10.36;100.00;102729.16;5372906;26;20023;-77
2024/04/11 07:30:23;;;;;;;3.45;2.25;;;;;;;10.37;100.00;102730.00;5370419;26;20035;-76
2024/04/11 07:32:52;;;;;;;5.88;2.05;;;;;;;10.37;100.00;102738.03;5390968;26;20016;-77
2024/04/11 07:35:19;;;;;;;5.90;2.38;;;;;;;10.34;100.00;102743.81;5403781;26;20012;-77
2024/04/11 07:37:44;;;;;;;7.70;2.22;;;;;;;10.34;100.00;102741.13;5369864;26;20014;-76
2024/04/11 07:40:32;;;;;;;5.97;2.30;;;;;;;10.30;100.00;102743.44;5400497;26;20012;-76
2024/04/11 07:43:06;;;;;;;7.88;2.30;;;;;;;10.26;100.00;102738.72;5374370;26;20488;-76
2024/04/11 07:45:36;;;;;;;5.97;2.38;;;;;;;10.21;100.00;102749.22;5393538;26;20022;-76
2024/04/11 07:48:04;;;;;;;7.00;2.50;;;;;;;10.15;100.00;102747.41;5400281;26;20011;-77
2024/04/11 07:50:33;;;;;;;8.05;2.40;;;;;;;10.11;100.00;102750.56;5375950;26;20461;-76
2024/04/11 07:52:59;;;;;;;6.97;2.30;;;;;;;10.12;100.00;102752.19;5358144;26;20084;-77
2024/04/11 07:55:25;;;;;;;7.97;2.65;;;;;;;10.06;100.00;102753.03;5385196;26;20003;-74
2024/04/11 07:57:51;;;;;;;8.10;2.03;;;;;;;10.01;100.00;102755.53;5374583;26;20458;-77
2024/04/11 08:00:20;;;;;;;8.82;2.97;;;;;;;10.01;100.00;102760.91;5370766;26;20012;-78
2024/04/11 08:02:48;;;;;;;7.20;2.58;;;;;;;10.00;100.00;102759.25;5337742;26;20016;-76
2024/04/11 08:05:17;;;;;;;9.80;2.72;;;;;;;9.96;100.00;102762.59;5344613;26;20016;-76
2024/04/11 08:07:43;;;;;;;6.10;2.28;;;;;;;9.91;100.00;102760.56;5373896;26;20093;-79
2024/04/11 08:10:10;;;;;;;13.95;2.90;;;;;;;9.88;100.00;102760.16;5378428;26;20023;-78
2024/04/11 08:12:35;;;;;;;;;;;;;;;9.86;100.00;102765.75;5358743;26;20035;-78
2024/04/11 08:15:02;;;;;;;10.05;2.80;;;;;;;9.82;100.00;102753.81;5388611;26;19925;-79
2024/04/11 08:17:29;;;;;;;5.25;2.80;;;;;;;9.78;100.00;102774.03;5375005;26;20022;-78
2024/04/11 08:19:55;;;;;;;7.80;2.33;;;;;;;9.75;100.00;102771.75;5332571;26;20020;-78
2024/04/11 08:22:22;;;;;;;7.60;2.40;;;;;;;9.74;100.00;102780.84;5381128;26;20007;-79
2024/04/11 08:24:49;;;;;;;5.38;2.38;;;;;;;9.72;100.00;102780.25;5381638;26;20003;-77
2024/04/11 08:27:15;;;;;;;5.95;2.45;;;;;;;9.70;100.00;102774.28;5396873;26;20031;-79
2024/04/11 08:29:41;;;;;;;6.53;2.80;;;;;;;9.72;100.00;102775.72;5380567;26;19999;-76
2024/04/11 08:32:06;;;;;;;9.13;2.92;;;;;;;9.72;100.00;102782.91;5403349;26;20105;-77
2024/04/11 08:34:32;;;;;;;10.90;3.33;;;;;;;9.72;100.00;102785.59;5368140;26;20008;-77
2024/04/11 08:36:58;;;;;;;9.40;2.80;;;;;;;9.75;100.00;102785.16;5352671;26;20599;-80
2024/04/11 08:39:23;;;;;;;6.15;2.50;;;;;;;9.74;100.00;102792.34;5375011;26;20086;-78
2024/04/11 08:41:51;;;;;;;11.70;3.15;;;;;;;9.76;100.00;102784.13;5366707;26;20082;-78
2024/04/11 08:44:18;;;;;;;10.23;2.92;;;;;;;9.79;100.00;102789.06;5364167;26;20007;-77
2024/04/11 08:46:44;;;;;;;7.35;3.38;;;;;;;9.75;100.00;102787.81;5351124;26;20020;-75
2024/04/11 08:49:13;;;;;;;6.07;2.53;;;;;;;9.75;100.00;102790.50;5363448;26;20445;-76
2024/04/11 08:51:39;;;;;;;5.88;3.05;;;;;;;9.74;100.00;102788.84;5364512;26;20078;-78
2024/04/11 08:54:07;;;;;;;8.75;2.67;;;;;;;9.78;100.00;102800.78;5360472;26;20089;-76
2024/04/11 08:56:33;;;;;;;7.93;2.75;;;;;;;9.83;100.00;102801.78;5391222;26;20478;-74
2024/04/11 08:58:59;;;;;;;8.75;3.10;;;;;;;9.88;100.00;102803.81;5397999;26;20019;-76
2024/04/11 09:01:26;;;;;;;10.23;2.92;;;;;;;9.92;100.00;102810.38;5352758;26;20003;-75
2024/04/11 09:03:52;;;;;;;10.23;3.03;;;;;;;9.94;100.00;102819.00;5357360;26;20019;-76
2024/04/11 09:06:28;;;;;;;;;;;;;;;10.00;100.00;102804.78;5396741;26;20080;-76
2024/04/11 09:08:56;;;;;;;9.68;2.95;;;;;;;10.04;100.00;102807.84;5353407;26;19932;-76
2024/04/11 09:11:27;;;;;;;7.93;2.70;;;;;;;10.02;100.00;102818.75;5405295;26;20030;-76
2024/04/11 09:13:54;;;;;;;6.65;2.60;;;;;;;10.06;100.00;102830.69;5383385;26;20023;-76
2024/04/11 09:16:26;;;;;;;8.13;2.55;;;;;;;10.10;100.00;102812.34;5369429;26;20040;-75
2024/04/11 09:19:10;;;;;;;6.88;3.17;;;;;;;10.25;100.00;102818.25;5347322;26;20021;-78
2024/04/11 09:21:46;;;;;;;10.07;3.10;;;;;;;10.28;100.00;102819.66;5400888;26;20011;-76
2024/04/11 09:24:18;;;;;;;9.55;3.30;;;;;;;10.40;100.00;102823.28;5401780;26;20021;-75
2024/04/11 09:26:45;;;;;;;7.35;3.42;;;;;;;10.41;100.00;102840.16;5368912;26;20026;-78
2024/04/11 09:29:13;;;;;;;7.28;2.97;;;;;;;10.42;100.00;102831.91;5402482;26;20007;-77
2024/04/11 09:31:39;;;;;;;5.78;3.60;;;;;;;10.46;100.00;102838.50;5362063;26;20468;-75
2024/04/11 09:34:13;;;;;;;8.15;2.95;;;;;;;10.49;100.00;102832.69;5358757;26;20008;-77
2024/04/11 09:36:47;;;;;;;6.90;2.85;;;;;;;10.51;100.00;102829.81;5343224;26;20023;-77
2024/04/11 09:39:41;;;;;;;8.00;2.65;;;;;;;10.59;100.00;102833.03;5358660;26;20008;-76
2024/04/11 09:42:11;;;;;;;7.72;3.15;;;;;;;10.63;100.00;102828.88;5388905;26;20015;-76
2024/04/11 09:44:50;;;;;;;6.22;3.00;;;;;;;10.72;100.00;102842.00;5335619;26;20008;-77
2024/04/11 09:47:19;;;;;;;;;;;;;;;10.77;100.00;102842.16;5367993;26;20008;-76
2024/04/11 09:49:53;;;;;;;6.88;3.42;;;;;;;10.76;100.00;102837.81;5369478;26;20325;-76
2024/04/11 09:52:27;;;;;;;7.38;3.13;;;;;;;10.78;100.00;102851.84;5344107;26;20023;-76
2024/04/11 09:55:02;;;;;;;5.63;3.08;;;;;;;10.76;100.00;102859.28;5381146;26;20012;-76
2024/04/11 09:57:29;;;;;;;7.40;3.25;;;;;;;10.80;100.00;102860.47;5342614;26;20011;-77
2024/04/11 09:59:55;;;;;;;4.07;2.70;;;;;;;10.75;100.00;102873.72;5355483;26;20004;-76
2024/04/11 10:02:21;;;;;;;;;;;;;;;10.77;100.00;102872.47;5372184;26;20011;-77
2024/04/11 10:04:47;;;;;;;7.88;3.85;;;;;;;10.76;100.00;102875.34;5391569;26;19925;-76
2024/04/11 10:07:25;;;;;;;5.55;3.03;;;;;;;10.73;100.00;102879.28;5388849;26;20004;-77
2024/04/11 10:09:54;;;;;;;5.13;2.95;;;;;;;10.75;100.00;102884.44;5369318;26;20007;-77
2024/04/11 10:12:19;;;;;;;8.57;3.50;;;;;;;10.76;100.00;102883.38;5385890;26;20600;-76
2024/04/11 10:14:49;;;;;;;9.23;3.40;;;;;;;10.78;100.00;102882.16;5340436;26;20004;-77
2024/04/11 10:17:14;;;;;;;6.68;3.33;;;;;;;10.84;100.00;102877.78;5393786;26;20020;-76
2024/04/11 10:19:43;;;;;;;8.32;3.60;;;;;;;10.84;100.00;102881.28;5372736;26;20015;-77
2024/04/11 10:22:15;;;;;;;8.40;3.92;;;;;;;10.84;100.00;102877.78;5340190;26;20012;-75
2024/04/11 10:24:44;;;;;;;6.30;3.88;;;;;;;10.89;100.00;102888.66;5394428;26;20023;-76
2024/04/11 10:27:19;;;;;;;8.73;3.42;;;;;;;10.91;100.00;102889.25;5342089;26;20012;-77
2024/04/11 10:29:47;;;;;;;8.82;4.22;;;;;;;10.98;100.00;102876.63;5371757;26;20399;-77
2024/04/11 10:32:26;;;;;;;7.85;3.10;;;;;;;11.05;100.00;102885.44;5372123;26;20027;-75
2024/04/11 10:34:56;;;;;;;7.72;3.33;;;;;;;11.10;100.00;102882.88;5333591;26;20043;-76
2024/04/11 10:37:29;;;;;;;6.43;3.40;;;;;;;11.18;100.00;102885.31;5363149;26;20026;-77
2024/04/11 10:39:57;;;;;;;7.50;3.85;;;;;;;11.25;100.00;102890.59;5382023;26;20027;-76
2024/04/11 10:42:36;;;;;;;9.35;3.78;;;;;;;11.34;100.00;102883.06;5383077;26;20037;-77
2024/04/11 10:45:17;;;;;;;8.38;3.78;;;;;;;11.43;100.00;102876.38;5373419;26;20022;-77
2024/04/11 10:47:44;;;;;;;7.65;3.90;;;;;;;11.49;100.00;102870.09;5348156;26;20048;-77
2024/04/11 10:50:14;;;;;;;9.38;3.80;;;;;;;11.54;100.00;102867.56;5368123;26;20085;-77
2024/04/11 10:52:45;;;;;;;10.25;3.67;;;;;;;11.62;100.00;102872.63;5344583;26;20011;-77
2024/04/11 10:55:22;;;;;;;11.75;4.20;;;;;;;11.68;100.00;102871.75;5375573;26;20466;-79
2024/04/11 10:58:08;;;;;;;8.10;3.78;;;;;;;11.81;100.00;102869.97;5372300;26;20400;-76
2024/04/11 11:01:07;;;;;;;6.43;3.65;;;;;;;11.93;100.00;102871.69;5395429;26;20004;-76
2024/04/11 11:06:24;;;;;;;6.88;3.33;;;;;;;12.06;100.00;102881.44;5399066;26;20003;-75
2024/04/11 11:08:55;;;;;;;6.03;3.45;;;;;;;12.12;100.00;102875.13;5377477;26;20022;-72
2024/04/11 11:11:25;;;;;;;6.03;3.15;;;;;;;12.12;100.00;102890.41;5406584;26;20011;-72
2024/04/11 11:13:54;;;;;;;5.90;3.75;;;;;;;12.06;100.00;102891.31;5388002;26;20352;-77
2024/04/11 11:16:26;;;;;;;7.20;3.78;;;;;;;12.07;100.00;102893.00;5399413;26;20081;-73
2024/04/11 11:18:52;;;;;;;7.53;4.40;;;;;;;12.07;100.00;102891.13;5364027;26;20684;-73
2024/04/11 11:21:22;;;;;;;5.70;3.35;;;;;;;12.11;100.00;102886.91;5349831;26;20004;-76
2024/04/11 11:24:06;;;;;;;7.30;3.90;;;;;;;12.14;100.00;102883.78;5414252;26;20473;-76
2024/04/11 11:26:36;;;;;;;8.35;4.30;;;;;;;12.16;100.00;102876.31;5373623;26;20047;-78
2024/04/11 11:29:11;;;;;;;8.38;3.67;;;;;;;12.22;100.00;102879.97;5362089;26;20040;-74
2024/04/11 11:31:43;;;;;;;9.63;4.05;;;;;;;12.33;100.00;102875.66;5340824;26;20023;-76